Home   Weather   Oberstedten   Past weeks
Flag for Germany

Past Weather in Oberstedten, Hesse, Germany — October 2021

Currently: 50 °F. Clear. (Weather station: Frankfurt-M-Flughafen Airport, Germany). See more current weather

October 2021 Weather in Oberstedten — Graph

°F

High & Low Weather Summary for October 2021

 TemperatureHumidityPressure
High70 °F (Oct 2, 3:50 pm)100% (Oct 1, 3:20 am)30.42 "Hg (Oct 1, 3:20 am)
Low30 °F (Oct 25, 3:50 am)40% (Oct 1, 4:50 pm)29.42 "Hg (Oct 21, 3:20 am)
Average50 °F85%30.10 "Hg
* Reported Oct 1 12:20 am — Oct 31 11:50 pm, Oberstedten. Weather by CustomWeather, © 2022

Note: Actual official high and low records may vary slightly from our data, if they occured in-between our weather recording intervals... More about our weather records

Oberstedten Weather History for October 1, 2021

Scroll right to see more
 ConditionsComfort  
Time TempWeatherWind HumidityBarometerVisibility
12:20 am
Fri, Oct 1
50 °FClear.7 mph76%30.27 "Hg10 mi
12:50 am48 °FClear.6 mph87%30.27 "Hg10 mi
1:20 am48 °FClear.5 mph87%30.24 "Hg10 mi
1:50 am46 °FClear.No wind87%30.24 "Hg10 mi
2:20 am46 °FClear.1 mph87%30.24 "Hg10 mi
2:50 am45 °FClear.1 mph93%30.24 "Hg10 mi
3:20 am43 °FClear.1 mph100%30.21 "Hg10 mi
3:50 am43 °FClear.1 mph100%30.21 "Hg10 mi
4:20 am43 °FClear.2 mph93%30.21 "Hg10 mi
4:50 am41 °FClear.2 mph100%30.21 "Hg10 mi
5:20 am41 °FClear.2 mph93%30.18 "Hg10 mi
5:50 am41 °FClear.2 mph93%30.18 "Hg10 mi
6:20 am41 °FClear.2 mph93%30.18 "Hg10 mi
6:50 am41 °FClear.1 mph93%30.18 "Hg10 mi
7:20 am41 °FClear.1 mph93%30.18 "Hg10 mi
7:50 am41 °FSunny.1 mph100%30.18 "Hg10 mi
8:20 am43 °FSunny.2 mph93%30.18 "Hg10 mi
8:50 am46 °FSunny.1 mph87%30.18 "Hg10 mi
9:20 am50 °FSunny.1 mph82%30.18 "Hg10 mi
9:50 am52 °FSunny.2 mph77%30.18 "Hg10 mi
10:20 am52 °FPassing clouds.3 mph72%30.18 "HgN/A
10:50 am54 °FSunny.2 mph67%30.18 "Hg10 mi
11:20 am54 °FPassing clouds.6 mph72%30.15 "HgN/A
11:50 am57 °FPassing clouds.5 mph63%30.15 "HgN/A
12:20 pm59 °FPassing clouds.6 mph59%30.15 "HgN/A
12:50 pm61 °FPassing clouds.7 mph55%30.12 "HgN/A
1:20 pm63 °FSunny.6 mph52%30.12 "Hg10 mi
1:50 pm63 °FSunny.8 mph52%30.09 "Hg10 mi
2:20 pm64 °FPassing clouds.7 mph49%30.09 "HgN/A
2:50 pm64 °FPassing clouds.6 mph49%30.07 "HgN/A
3:20 pm66 °FPassing clouds.9 mph46%30.07 "HgN/A
3:50 pm66 °FPassing clouds.8 mph43%30.04 "HgN/A
4:20 pm66 °FPassing clouds.10 mph43%30.04 "HgN/A
4:50 pm66 °FPassing clouds.8 mph40%30.04 "HgN/A
5:20 pm66 °FPassing clouds.7 mph46%30.04 "HgN/A
5:50 pm63 °FPassing clouds.6 mph56%30.01 "HgN/A
6:20 pm59 °FSunny.6 mph68%30.01 "Hg10 mi
6:50 pm57 °FPassing clouds.5 mph67%30.01 "HgN/A
7:20 pm55 °FClear.6 mph72%30.01 "Hg10 mi
7:50 pm54 °FClear.6 mph77%30.01 "Hg10 mi
8:20 pm55 °FClear.6 mph72%30.01 "Hg10 mi
8:50 pm54 °FClear.6 mph77%30.01 "Hg10 mi
9:20 pm52 °FClear.2 mph88%30.01 "Hg10 mi
9:50 pm50 °FClear.3 mph88%30.01 "Hg10 mi
10:20 pm50 °FClear.1 mph88%30.01 "Hg10 mi
10:50 pm50 °FClear.2 mph88%30.01 "Hg10 mi
11:20 pm48 °FClear.2 mph94%30.01 "Hg10 mi
11:50 pm48 °FClear.3 mph94%30.01 "Hg10 mi
Weather by CustomWeather, © 2022

See weather overview